createdAt,value
2022-08-02T00:00:13.026Z,1.52
2022-08-02T00:02:40.489Z,1.88
2022-08-02T00:05:07.687Z,1.58
2022-08-02T00:07:39.129Z,1.67
2022-08-02T00:10:09.966Z,1.60
2022-08-02T00:12:37.471Z,1.25
2022-08-02T00:15:06.319Z,1.58
2022-08-02T00:17:32.848Z,1.30
2022-08-02T00:19:59.444Z,1.70
2022-08-02T00:22:25.956Z,1.83
2022-08-02T00:24:53.698Z,1.50
2022-08-02T00:27:20.185Z,1.70
2022-08-02T00:29:53.079Z,1.77
2022-08-02T00:32:22.293Z,1.65
2022-08-02T00:34:49.123Z,2.25
2022-08-02T00:37:15.721Z,1.58
2022-08-02T00:39:43.127Z,2.10
2022-08-02T00:42:10.926Z,1.55
2022-08-02T00:44:38.073Z,2.00
2022-08-02T00:47:05.167Z,1.92
2022-08-02T00:49:33.053Z,2.20
2022-08-02T00:52:00.293Z,1.60
2022-08-02T00:54:26.901Z,1.85
2022-08-02T00:56:53.405Z,1.90
2022-08-02T00:59:19.913Z,1.67
2022-08-02T01:01:54.592Z,1.60
2022-08-02T01:04:30.171Z,1.98
2022-08-02T01:06:59.961Z,2.00
2022-08-02T01:09:26.974Z,2.00
2022-08-02T01:11:53.629Z,2.00
2022-08-02T01:14:22.942Z,2.22
2022-08-02T01:17:06.504Z,1.67
2022-08-02T01:19:40.468Z,1.60
2022-08-02T01:23:01.010Z,1.90
2022-08-02T01:25:44.965Z,1.67
2022-08-02T01:28:34.805Z,1.80
2022-08-02T01:31:10.511Z,1.98
2022-08-02T01:33:44.403Z,2.28
2022-08-02T01:36:14.249Z,1.92
2022-08-02T01:38:46.609Z,1.80
2022-08-02T01:41:20.068Z,1.90
2022-08-02T01:43:49.512Z,1.55
2022-08-02T01:46:17.767Z,1.38
2022-08-02T01:48:46.453Z,1.70
2022-08-02T01:51:17.352Z,1.70
2022-08-02T01:53:48.561Z,1.55
2022-08-02T01:56:17.637Z,2.05
2022-08-02T01:58:46.673Z,1.75
2022-08-02T02:01:18.250Z,1.60
2022-08-02T02:03:47.438Z,1.52
2022-08-02T02:06:16.103Z,2.03
2022-08-02T02:08:44.193Z,1.50
2022-08-02T02:12:08.629Z,1.75
2022-08-02T02:13:59.896Z,1.50
2022-08-02T02:16:28.088Z,1.75
2022-08-02T02:18:55.244Z,1.30
2022-08-02T02:21:22.092Z,1.70
2022-08-02T02:23:50.739Z,2.00
2022-08-02T02:26:27.595Z,1.52
2022-08-02T02:29:01.406Z,1.83
2022-08-02T02:31:32.542Z,1.73
2022-08-02T02:34:03.561Z,1.73
2022-08-02T02:36:33.334Z,1.90
2022-08-02T02:39:03.029Z,1.92
2022-08-02T02:41:29.788Z,1.50
2022-08-02T02:44:00.076Z,1.60
2022-08-02T02:46:29.397Z,1.65
2022-08-02T02:48:56.966Z,1.63
2022-08-02T02:51:24.851Z,1.83
2022-08-02T02:54:30.294Z,2.03
2022-08-02T02:56:42.589Z,1.75
2022-08-02T02:59:09.375Z,2.05
2022-08-02T03:01:57.335Z,1.92
2022-08-02T03:04:25.004Z,1.90
2022-08-02T03:06:51.805Z,1.50
2022-08-02T03:09:18.653Z,1.95
2022-08-02T03:11:45.953Z,2.00
2022-08-02T03:14:13.289Z,2.08
2022-08-02T03:16:47.675Z,2.08
2022-08-02T03:19:14.752Z,1.77
2022-08-02T03:21:42.708Z,2.00
2022-08-02T03:24:09.488Z,1.90
2022-08-02T03:26:36.764Z,1.63
2022-08-02T03:29:10.202Z,1.88
2022-08-02T03:31:40.499Z,2.00
2022-08-02T03:34:07.836Z,1.90
2022-08-02T03:36:35.625Z,1.98
2022-08-02T03:39:03.371Z,2.15
2022-08-02T03:41:30.581Z,1.90
2022-08-02T03:43:58.659Z,1.80
2022-08-02T03:46:26.017Z,1.77
2022-08-02T03:48:54.622Z,1.77
2022-08-02T03:51:22.343Z,1.98
2022-08-02T03:53:49.441Z,1.88
2022-08-02T03:56:16.367Z,1.73
2022-08-02T03:58:48.493Z,1.92
2022-08-02T04:01:16.192Z,2.05
2022-08-02T04:03:42.960Z,1.55
2022-08-02T04:06:09.563Z,1.98
2022-08-02T04:08:38.374Z,1.83
2022-08-02T04:11:24.651Z,1.67
2022-08-02T04:13:51.864Z,1.75
2022-08-02T04:16:29.112Z,1.83
2022-08-02T04:18:57.919Z,1.73
2022-08-02T04:21:27.377Z,1.65
2022-08-02T04:24:18.967Z,1.80
2022-08-02T04:26:48.135Z,1.80
2022-08-02T04:29:18.183Z,1.73
2022-08-02T04:31:45.579Z,1.80
2022-08-02T04:34:15.399Z,1.95
2022-08-02T04:36:43.012Z,1.23
2022-08-02T04:39:09.569Z,1.70
2022-08-02T04:41:44.637Z,1.55
2022-08-02T04:44:12.594Z,1.70
2022-08-02T04:46:41.175Z,1.58
2022-08-02T04:49:08.094Z,1.88
2022-08-02T04:51:43.081Z,1.50
2022-08-02T04:54:10.904Z,1.85
2022-08-02T04:56:38.899Z,1.95
2022-08-02T04:59:06.565Z,1.50
2022-08-02T05:01:33.480Z,1.70
2022-08-02T05:04:00.300Z,2.05
2022-08-02T05:06:27.141Z,1.77
2022-08-02T05:08:53.899Z,1.60
2022-08-02T05:11:22.055Z,2.15
2022-08-02T05:13:58.452Z,1.98
2022-08-02T05:16:31.347Z,2.20
2022-08-02T05:19:00.284Z,1.85
2022-08-02T05:21:26.841Z,1.65
2022-08-02T05:23:53.413Z,1.92
2022-08-02T05:26:20.078Z,2.20
2022-08-02T05:28:46.598Z,1.90
2022-08-02T05:31:16.701Z,2.08
2022-08-02T05:33:43.173Z,1.77
2022-08-02T05:36:09.990Z,2.00
2022-08-02T05:38:37.615Z,2.10
2022-08-02T05:41:05.285Z,1.90
2022-08-02T05:43:32.530Z,2.05
2022-08-02T05:45:59.287Z,2.10
2022-08-02T05:48:31.250Z,2.20
2022-08-02T05:51:05.246Z,2.17
2022-08-02T05:53:34.446Z,1.33
2022-08-02T05:56:24.896Z,1.98
2022-08-02T05:59:04.941Z,2.40
2022-08-02T06:01:37.877Z,1.95
2022-08-02T06:04:09.613Z,1.52
2022-08-02T06:06:38.249Z,1.67
2022-08-02T06:09:14.657Z,1.67
2022-08-02T06:12:01.492Z,2.00
2022-08-02T06:14:33.155Z,1.98
2022-08-02T06:17:04.187Z,2.00
2022-08-02T06:19:32.188Z,1.90
2022-08-02T06:22:33.423Z,1.88
2022-08-02T06:25:04.652Z,1.90
2022-08-02T06:27:32.846Z,1.92
2022-08-02T06:29:59.700Z,1.80
2022-08-02T06:32:28.300Z,1.73
2022-08-02T06:34:54.909Z,1.83
2022-08-02T06:37:37.914Z,1.63
2022-08-02T06:40:12.282Z,1.67
2022-08-02T06:43:11.404Z,1.95
2022-08-02T06:45:38.216Z,1.42
2022-08-02T06:48:05.527Z,1.45
2022-08-02T06:50:32.554Z,1.17
2022-08-02T06:52:59.292Z,1.38
2022-08-02T06:55:27.652Z,1.17
2022-08-02T06:57:54.187Z,1.50
2022-08-02T07:00:20.702Z,1.65
2022-08-02T07:02:47.321Z,1.63
2022-08-02T07:05:13.931Z,1.52
2022-08-02T07:07:40.607Z,1.20
2022-08-02T07:10:07.668Z,1.60
2022-08-02T07:12:35.053Z,1.75
2022-08-02T07:15:05.804Z,1.08
2022-08-02T07:17:33.288Z,1.48
2022-08-02T07:20:01.035Z,1.23
2022-08-02T07:22:28.267Z,1.25
2022-08-02T07:24:56.750Z,1.15
2022-08-02T07:27:24.206Z,1.27
2022-08-02T07:29:51.330Z,1.48
2022-08-02T07:32:19.717Z,1.45
2022-08-02T07:34:50.745Z,1.33
2022-08-02T07:37:35.797Z,1.58
2022-08-02T07:40:11.848Z,1.60
2022-08-02T07:42:44.450Z,1.77
2022-08-02T07:45:12.580Z,1.60
2022-08-02T07:47:43.996Z,1.52
2022-08-02T07:50:12.285Z,2.08
2022-08-02T07:52:39.981Z,2.00
2022-08-02T07:55:06.902Z,1.40
2022-08-02T07:57:33.419Z,1.92
2022-08-02T07:59:59.951Z,1.85
2022-08-02T08:02:26.595Z,1.92
2022-08-02T08:04:53.379Z,1.98
2022-08-02T08:07:20.365Z,1.58
2022-08-02T08:09:48.203Z,1.90
2022-08-02T08:12:16.368Z,1.60
2022-08-02T08:14:43.976Z,2.03
2022-08-02T08:17:10.577Z,1.67
2022-08-02T08:19:51.731Z,1.65
2022-08-02T08:22:20.329Z,1.90
2022-08-02T08:24:48.286Z,1.95
2022-08-02T08:27:18.051Z,2.00
2022-08-02T08:29:45.402Z,1.65
2022-08-02T08:32:17.930Z,2.03
2022-08-02T08:34:46.337Z,1.98
2022-08-02T08:37:17.944Z,2.45
2022-08-02T08:39:57.626Z,1.90
2022-08-02T08:42:29.058Z,1.92
2022-08-02T08:44:57.427Z,1.90
2022-08-02T08:47:35.114Z,2.10
2022-08-02T08:50:20.102Z,1.90
2022-08-02T08:53:08.722Z,1.85
2022-08-02T08:55:39.045Z,2.45
2022-08-02T08:58:06.473Z,2.10
2022-08-02T09:00:35.530Z,2.17
2022-08-02T09:03:06.335Z,1.92
2022-08-02T09:05:36.167Z,1.95
2022-08-02T09:08:03.476Z,1.90
2022-08-02T09:10:43.311Z,1.70
2022-08-02T09:13:38.473Z,1.90
2022-08-02T09:16:00.977Z,2.25
2022-08-02T09:18:46.196Z,1.85
2022-08-02T09:21:15.313Z,1.80
2022-08-02T09:23:50.246Z,1.70
2022-08-02T09:26:20.780Z,1.83
2022-08-02T09:28:52.456Z,2.20
2022-08-02T09:31:23.760Z,2.20
2022-08-02T09:33:53.956Z,1.95
2022-08-02T09:36:21.402Z,1.88
2022-08-02T09:39:02.376Z,2.40
2022-08-02T09:41:34.569Z,2.03
2022-08-02T09:44:06.372Z,2.75
2022-08-02T09:46:44.337Z,1.77
2022-08-02T09:49:17.010Z,2.08
2022-08-02T09:51:49.592Z,1.92
2022-08-02T09:54:21.003Z,1.80
2022-08-02T09:56:50.774Z,1.60
2022-08-02T09:59:19.334Z,1.70
2022-08-02T10:01:51.172Z,1.73
2022-08-02T10:04:52.453Z,1.88
2022-08-02T10:07:21.777Z,1.83
2022-08-02T10:09:51.075Z,1.63
2022-08-02T10:12:17.824Z,1.30
2022-08-02T10:14:45.175Z,1.40
2022-08-02T10:17:12.372Z,1.90
2022-08-02T10:20:03.127Z,1.40
2022-08-02T10:22:26.952Z,1.60
2022-08-02T10:24:54.126Z,1.60
2022-08-02T10:27:21.292Z,1.42
2022-08-02T10:29:54.795Z,1.38
2022-08-02T10:32:33.028Z,1.55
2022-08-02T10:35:32.769Z,1.77
2022-08-02T10:38:03.570Z,1.63
2022-08-02T10:40:44.385Z,1.83
2022-08-02T10:43:11.295Z,1.75
2022-08-02T10:45:38.145Z,1.85
2022-08-02T10:48:12.212Z,1.80
2022-08-02T10:50:52.895Z,1.52
2022-08-02T10:53:30.359Z,1.67
2022-08-02T10:56:00.329Z,1.27
2022-08-02T10:58:29.934Z,1.52
2022-08-02T11:00:57.752Z,1.75
2022-08-02T11:03:40.293Z,1.40
2022-08-02T11:06:25.045Z,1.80
2022-08-02T11:09:31.932Z,1.80
2022-08-02T11:12:07.915Z,1.70
2022-08-02T11:14:42.769Z,1.98
2022-08-02T11:17:15.607Z,1.33
2022-08-02T11:20:21.788Z,1.67
2022-08-02T11:22:53.334Z,2.10
2022-08-02T11:25:23.134Z,1.70
2022-08-02T11:27:54.800Z,2.10
2022-08-02T11:30:26.422Z,2.25
2022-08-02T11:32:58.118Z,2.03
2022-08-02T11:35:36.143Z,2.10
2022-08-02T11:38:23.785Z,1.80
2022-08-02T11:40:50.345Z,1.55
2022-08-02T11:43:27.374Z,1.38
2022-08-02T11:45:56.147Z,1.70
2022-08-02T11:48:37.211Z,2.10
2022-08-02T11:51:16.106Z,1.80
2022-08-02T11:53:50.047Z,1.88
2022-08-02T11:56:25.341Z,1.88
2022-08-02T11:59:01.539Z,1.98
2022-08-02T12:01:28.276Z,1.42
2022-08-02T12:03:58.763Z,1.80
2022-08-02T12:06:25.910Z,1.98
2022-08-02T12:08:54.607Z,2.13
2022-08-02T12:11:21.895Z,2.25
2022-08-02T12:13:56.513Z,1.95
2022-08-02T12:16:43.162Z,1.63
2022-08-02T12:19:19.546Z,1.80
2022-08-02T12:21:46.830Z,1.75
2022-08-02T12:24:13.607Z,1.90
2022-08-02T12:26:48.342Z,1.88
2022-08-02T12:29:14.879Z,1.65
2022-08-02T12:32:02.705Z,1.60
2022-08-02T12:34:32.291Z,1.80
2022-08-02T12:37:05.103Z,1.50
2022-08-02T12:39:43.331Z,1.65
2022-08-02T12:42:12.296Z,1.75
2022-08-02T12:44:51.668Z,1.80
2022-08-02T12:47:18.572Z,1.60
2022-08-02T12:50:26.351Z,1.30
2022-08-02T12:53:11.683Z,1.50
2022-08-02T12:56:02.050Z,1.38
2022-08-02T12:58:31.127Z,1.70
2022-08-02T13:01:00.586Z,1.40
2022-08-02T13:04:10.749Z,1.60
2022-08-02T13:06:41.320Z,1.27
2022-08-02T13:09:01.494Z,1.25
2022-08-02T13:11:28.087Z,1.40
2022-08-02T13:13:54.708Z,1.55
2022-08-02T13:16:31.226Z,1.55
2022-08-02T13:18:58.939Z,1.30
2022-08-02T13:21:39.811Z,1.45
2022-08-02T13:24:33.129Z,1.30
2022-08-02T13:26:55.345Z,1.30
2022-08-02T13:29:21.899Z,1.30
2022-08-02T13:31:48.447Z,1.20
2022-08-02T13:34:16.587Z,1.10
2022-08-02T13:36:43.484Z,0.90
2022-08-02T13:39:11.969Z,1.00
2022-08-02T13:41:38.583Z,1.00
2022-08-02T13:44:10.458Z,1.00
2022-08-02T13:46:45.556Z,0.85
2022-08-02T13:49:18.570Z,0.90
2022-08-02T13:51:47.196Z,1.10
2022-08-02T13:54:14.228Z,0.90
2022-08-02T13:56:40.839Z,1.10
2022-08-02T13:59:57.739Z,0.77
2022-08-02T14:01:56.469Z,0.90
2022-08-02T14:04:23.935Z,1.00
2022-08-02T14:06:51.058Z,1.00
2022-08-02T14:09:18.558Z,0.88
2022-08-02T14:11:46.357Z,0.90
2022-08-02T14:14:16.303Z,1.10
2022-08-02T14:16:44.514Z,1.02
2022-08-02T14:19:16.792Z,0.75
2022-08-02T14:21:48.094Z,1.00
2022-08-02T14:24:21.265Z,0.88
2022-08-02T14:26:48.489Z,0.90
2022-08-02T14:29:15.753Z,0.98
2022-08-02T14:31:44.806Z,1.00
2022-08-02T14:34:12.938Z,1.10
2022-08-02T14:36:39.461Z,1.05
2022-08-02T14:39:06.175Z,1.27
2022-08-02T14:41:54.676Z,1.20
2022-08-02T14:44:20.712Z,1.17
2022-08-02T14:46:47.378Z,1.10
2022-08-02T14:49:25.148Z,1.20
2022-08-02T14:51:56.356Z,1.30
2022-08-02T14:54:28.006Z,1.17
2022-08-02T14:56:59.097Z,1.20
2022-08-02T14:59:25.907Z,1.35
2022-08-02T15:01:52.757Z,1.48
2022-08-02T15:04:19.489Z,1.38
2022-08-02T15:06:46.209Z,0.95
2022-08-02T15:09:13.632Z,1.20
2022-08-02T15:11:46.926Z,1.30
2022-08-02T15:14:16.741Z,1.17
2022-08-02T15:16:56.648Z,1.27
2022-08-02T15:19:25.942Z,0.98
2022-08-02T15:22:08.485Z,1.20
2022-08-02T15:24:35.021Z,1.33
2022-08-02T15:27:01.584Z,1.20
2022-08-02T15:29:28.172Z,1.00
2022-08-02T15:31:54.715Z,1.20
2022-08-02T15:34:21.596Z,0.98
2022-08-02T15:36:48.056Z,1.10
2022-08-02T15:39:14.561Z,1.13
2022-08-02T15:41:41.052Z,1.10
2022-08-02T15:44:10.312Z,0.95
2022-08-02T15:46:38.171Z,1.05
2022-08-02T15:49:05.355Z,1.08
2022-08-02T15:51:32.178Z,0.80
2022-08-02T15:53:58.789Z,1.10
2022-08-02T15:56:25.536Z,1.10
2022-08-02T15:58:55.468Z,1.00
2022-08-02T16:01:24.178Z,0.73
2022-08-02T16:03:50.862Z,0.93
2022-08-02T16:06:17.704Z,0.70
2022-08-02T16:08:45.492Z,0.80
2022-08-02T16:11:20.353Z,0.80
2022-08-02T16:13:55.686Z,1.00
2022-08-02T16:16:28.102Z,0.80
2022-08-02T16:18:55.306Z,0.82
2022-08-02T16:21:23.440Z,1.00
2022-08-02T16:24:01.565Z,1.23
2022-08-02T16:26:31.050Z,0.80
2022-08-02T16:28:58.886Z,0.80
2022-08-02T16:31:25.482Z,0.70
2022-08-02T16:33:56.407Z,0.85
2022-08-02T16:36:24.842Z,0.80
2022-08-02T16:38:52.090Z,0.85
2022-08-02T16:41:18.739Z,0.77
2022-08-02T16:43:45.221Z,0.80
2022-08-02T16:46:11.786Z,0.85
2022-08-02T16:48:38.333Z,0.90
2022-08-02T16:51:05.355Z,0.82
2022-08-02T16:54:00.242Z,1.05
2022-08-02T16:56:30.614Z,1.50
2022-08-02T16:58:59.745Z,1.10
2022-08-02T17:02:11.717Z,0.80
2022-08-02T17:04:15.550Z,0.95
2022-08-02T17:06:47.852Z,0.90
2022-08-02T17:10:04.507Z,0.70
2022-08-02T17:12:07.662Z,1.00
2022-08-02T17:14:54.631Z,0.82
2022-08-02T17:17:33.760Z,0.95
2022-08-02T17:20:01.736Z,0.95
2022-08-02T17:22:28.827Z,0.93
2022-08-02T17:24:55.462Z,0.90
2022-08-02T17:27:22.198Z,1.10
2022-08-02T17:29:48.823Z,1.08
2022-08-02T17:32:18.521Z,1.35
2022-08-02T17:34:56.599Z,1.30
2022-08-02T17:37:28.460Z,1.40
2022-08-02T17:39:57.217Z,1.00
2022-08-02T17:42:24.789Z,0.98
2022-08-02T17:45:00.829Z,0.85
2022-08-02T17:47:33.360Z,2.30
2022-08-02T17:50:09.653Z,0.95
2022-08-02T17:52:50.634Z,0.90
2022-08-02T17:55:25.857Z,1.10
2022-08-02T17:57:58.206Z,1.10
2022-08-02T18:00:33.914Z,1.27
2022-08-02T18:03:02.151Z,1.23
2022-08-02T18:05:40.318Z,2.50
2022-08-02T18:08:21.665Z,2.00
2022-08-02T18:10:50.808Z,1.75
2022-08-02T18:13:17.443Z,2.00
2022-08-02T18:15:45.777Z,1.50
2022-08-02T18:18:13.523Z,1.38
2022-08-02T18:20:41.680Z,1.48
2022-08-02T18:23:13.551Z,1.40
2022-08-02T18:25:45.712Z,1.20
2022-08-02T18:28:14.594Z,1.13
2022-08-02T18:30:42.744Z,1.15
2022-08-02T18:34:00.206Z,1.38
2022-08-02T18:35:56.141Z,1.00
2022-08-02T18:38:26.724Z,1.20
2022-08-02T18:40:53.654Z,1.70
2022-08-02T18:43:25.278Z,1.88
2022-08-02T18:46:05.348Z,1.90
2022-08-02T18:48:46.228Z,1.77
2022-08-02T18:51:14.394Z,1.77
2022-08-02T18:53:42.433Z,1.58
2022-08-02T18:56:19.376Z,1.73
2022-08-02T18:58:48.445Z,1.45
2022-08-02T19:01:21.903Z,1.85
2022-08-02T19:03:59.835Z,1.60
2022-08-02T19:06:27.411Z,2.08
2022-08-02T19:09:05.995Z,1.65
2022-08-02T19:11:47.376Z,1.90
2022-08-02T19:14:19.204Z,1.65
2022-08-02T19:17:54.383Z,1.88
2022-08-02T19:19:51.150Z,1.90
2022-08-02T19:22:20.167Z,1.52
2022-08-02T19:24:47.695Z,2.10
2022-08-02T19:27:15.469Z,1.52
2022-08-02T19:29:49.061Z,1.67
2022-08-02T19:32:40.763Z,1.45
2022-08-02T19:35:19.168Z,1.70
2022-08-02T19:37:58.825Z,1.50
2022-08-02T19:40:28.746Z,2.03
2022-08-02T19:44:26.075Z,1.90
2022-08-02T19:45:49.947Z,1.90
2022-08-02T19:48:23.446Z,1.88
2022-08-02T19:50:50.404Z,1.90
2022-08-02T19:53:18.542Z,1.80
2022-08-02T19:56:00.833Z,1.40
2022-08-02T19:58:32.454Z,1.75
2022-08-02T20:00:59.321Z,1.58
2022-08-02T20:03:50.981Z,2.10
2022-08-02T20:06:15.838Z,2.05
2022-08-02T20:08:52.768Z,1.50
2022-08-02T20:11:23.232Z,1.55
2022-08-02T20:13:52.608Z,1.88
2022-08-02T20:16:27.443Z,1.80
2022-08-02T20:18:56.125Z,1.85
2022-08-02T20:21:34.176Z,1.75
2022-08-02T20:24:06.651Z,1.70
2022-08-02T20:26:35.226Z,1.80
2022-08-02T20:29:03.699Z,1.70
2022-08-02T20:31:30.522Z,1.50
2022-08-02T20:33:57.564Z,1.65
2022-08-02T20:36:25.709Z,1.95
2022-08-02T20:38:52.385Z,1.40
2022-08-02T20:41:22.859Z,1.52
2022-08-02T20:43:50.295Z,1.77
2022-08-02T20:46:16.805Z,1.40
2022-08-02T20:48:44.252Z,1.90
2022-08-02T20:51:15.562Z,1.80
2022-08-02T21:01:59.965Z,1.83
2022-08-02T21:04:27.167Z,2.08
2022-08-02T21:06:55.874Z,1.67
2022-08-02T21:09:23.858Z,1.83
2022-08-02T21:12:12.736Z,1.95
2022-08-02T21:14:39.751Z,1.75
2022-08-02T21:17:08.711Z,1.90
2022-08-02T21:19:35.416Z,2.20
2022-08-02T21:22:11.102Z,2.22
2022-08-02T21:24:38.647Z,2.40
2022-08-02T21:27:05.174Z,2.10
2022-08-02T21:29:51.624Z,1.88
2022-08-02T21:32:21.318Z,1.73
2022-08-02T21:34:49.109Z,2.20
2022-08-02T21:37:16.720Z,1.80
2022-08-02T21:39:43.738Z,1.80
2022-08-02T21:45:16.921Z,2.10
2022-08-02T21:47:44.753Z,2.00
2022-08-02T21:50:16.057Z,1.77
2022-08-02T21:52:52.417Z,2.20
2022-08-02T21:55:21.407Z,1.65
2022-08-02T21:57:51.095Z,1.90
2022-08-02T22:00:17.753Z,1.50
2022-08-02T22:02:55.156Z,1.77
2022-08-02T22:05:21.833Z,1.75
2022-08-02T22:07:48.359Z,1.98
2022-08-02T22:10:17.208Z,1.55
2022-08-02T22:12:43.703Z,1.92
2022-08-02T22:15:11.638Z,2.13
2022-08-02T22:17:51.725Z,1.90
2022-08-02T22:20:21.195Z,1.80
2022-08-02T22:22:52.349Z,2.38
2022-08-02T22:30:56.809Z,2.17
2022-08-02T22:33:46.937Z,1.70
2022-08-02T22:36:28.238Z,1.70
2022-08-02T22:38:55.359Z,1.95
2022-08-02T22:41:22.512Z,1.80
2022-08-02T22:43:49.478Z,1.73
2022-08-02T22:46:16.859Z,2.03
2022-08-02T22:48:45.302Z,1.73
2022-08-02T22:51:13.548Z,1.90
2022-08-02T22:53:41.084Z,1.70
2022-08-02T22:56:08.188Z,1.80
2022-08-02T22:59:05.992Z,1.65
2022-08-02T22:59:12.257Z,1.95
2022-08-02T22:59:12.689Z,1.75
2022-08-02T23:01:21.660Z,1.33
2022-08-02T23:03:48.280Z,1.48
2022-08-02T23:06:17.442Z,1.80
2022-08-02T23:08:43.957Z,1.83
2022-08-02T23:11:10.503Z,1.50
2022-08-02T23:13:36.983Z,1.52
2022-08-02T23:16:22.336Z,1.60
2022-08-02T23:19:07.488Z,1.40
2022-08-02T23:22:01.905Z,2.00
2022-08-02T23:24:22.592Z,1.60
2022-08-02T23:26:49.112Z,1.70
2022-08-02T23:29:15.606Z,1.90
2022-08-02T23:31:42.089Z,1.85
2022-08-02T23:34:11.530Z,1.75
2022-08-02T23:36:38.005Z,1.67
2022-08-02T23:39:04.570Z,1.73
2022-08-02T23:41:34.546Z,1.70
2022-08-02T23:44:13.411Z,1.90
2022-08-02T23:46:45.364Z,1.50
2022-08-02T23:49:13.594Z,2.30
2022-08-02T23:51:40.745Z,2.10
2022-08-02T23:54:07.339Z,2.28
2022-08-02T23:56:34.001Z,1.80
2022-08-02T23:59:00.621Z,2.10
